EDT,Max TemperatureF,Mean TemperatureF,Min TemperatureF,Max Dew PointF,MeanDew PointF,Min DewpointF,Max Humidity, Mean Humidity, Min Humidity, Max Sea Level PressureIn, Mean Sea Level PressureIn, Min Sea Level PressureIn, Max VisibilityMiles, Mean VisibilityMiles, Min VisibilityMiles, Max Wind SpeedMPH, Mean Wind SpeedMPH, Max Gust SpeedMPH,PrecipitationIn, CloudCover, Events, WindDirDegrees
2013-10-1,85,81,77,73,70,68,78,69,61,30.09,30.06,30.01,10,10,10,13,8,,0.00,2,,64
2013-10-2,85,81,78,70,69,66,73,67,58,30.09,30.06,30.02,10,10,10,13,9,,0.00,2,,56
2013-10-3,86,82,78,72,69,67,72,66,58,30.09,30.06,30.01,10,10,10,10,7,,0.00,1,,83
2013-10-4,85,82,78,71,69,67,73,67,60,30.12,30.07,30.04,10,10,10,12,7,,0.00,0,,73
2013-10-5,86,82,78,75,72,68,84,73,63,30.08,30.02,29.98,10,10,9,15,9,18,0.00,3,,70
2013-10-6,86,82,77,74,72,70,84,72,65,29.99,29.95,29.91,10,10,10,10,7,,0.00,1,,123
2013-10-7,88,81,75,75,73,70,94,81,59,29.91,29.85,29.80,10,9,2,22,9,28,0.13,2,Rain,208
2013-10-8,90,82,75,75,73,70,94,82,53,29.95,29.88,29.81,10,10,7,15,12,,0.05,3,Rain,259
2013-10-9,83,78,73,73,72,68,94,84,65,30.04,29.96,29.91,10,10,3,18,13,24,0.14,5,Rain,342
2013-10-10,83,77,71,70,66,57,86,71,57,30.08,30.03,30.01,10,10,10,15,12,,0.00,0,,358
2013-10-11,83,77,72,67,63,60,83,62,48,30.08,30.02,29.98,10,10,10,9,5,,0.00,0,,37
2013-10-12,86,79,72,68,64,60,84,61,41,30.06,30.02,29.99,10,10,10,13,5,,0.00,1,,338
2013-10-13,84,78,71,68,64,60,81,63,43,30.11,30.05,30.01,10,10,10,15,6,,0.00,0,,355
2013-10-14,84,79,73,70,68,64,84,71,55,30.04,30.01,29.96,10,10,10,16,10,21,0.00,2,,350
2013-10-15,81,75,69,72,69,68,100,87,67,30.01,29.97,29.91,10,7,0,12,8,,0.00,4,Fog,317
2013-10-16,83,76,71,72,70,69,100,85,66,29.99,29.97,29.93,10,8,0,9,6,,0.00,3,Fog,314
2013-10-17,85,78,72,73,71,68,94,76,58,30.01,29.96,29.92,10,10,10,12,5,,0.00,0,,30
2013-10-18,84,79,74,73,72,70,90,76,66,30.03,29.98,29.93,10,10,10,12,6,,0.00,1,,152
2013-10-19,86,80,75,75,73,70,87,75,66,29.99,29.94,29.91,10,10,10,15,10,,0.00,0,,156
2013-10-20,85,80,76,75,73,72,90,79,69,29.99,29.95,29.90,10,10,10,16,10,,0.00,2,,10
2013-10-21,88,82,77,76,74,73,89,81,64,30.03,29.98,29.94,10,10,10,12,6,,0.00,3,,131
2013-10-22,91,83,75,75,73,68,89,80,52,29.98,29.90,29.83,10,8,1,25,9,41,0.64,3,Rain,225
2013-10-23,80,76,73,71,66,52,90,71,47,30.01,29.90,29.83,10,10,10,18,10,22,0.00,3,,319
2013-10-24,76,72,69,62,57,52,77,59,51,30.17,30.10,30.01,10,10,10,17,14,17,0.00,0,,343
2013-10-25,78,72,67,62,58,54,78,63,47,30.25,30.20,30.16,10,10,10,16,12,20,0.00,0,,347
2013-10-26,78,72,68,58,55,50,68,56,38,30.22,30.17,30.12,10,10,10,13,10,,0.00,0,,357
2013-10-27,77,71,65,60,58,55,79,64,45,30.16,30.12,30.09,10,10,10,13,9,,0.00,0,,349
2013-10-28,81,74,68,64,61,60,81,65,51,30.21,30.16,30.12,10,10,10,16,10,20,0.00,0,,357
2013-10-29,83,76,70,68,65,63,85,68,50,30.24,30.20,30.17,10,10,10,15,9,,0.00,1,Rain,24
2013-10-30,83,78,74,68,67,65,79,67,56,30.25,30.19,30.14,10,10,6,15,9,28,0.01,3,Rain,78
2013-10-31,84,80,77,72,68,65,81,68,57,30.17,30.10,30.04,10,10,10,15,13,20,0.00,1,,127